Time;durP1;ratioP1;P1;durP2;ratioP2;P2;SDS_P1;SDS_P2;PMS_P1;PMS_P2;Temp;Humidity;BMP_temperature;BMP_pressure;BME280_temperature;BME280_humidity;BME280_pressure;Samples;Min_cycle;Max_cycle;Signal;HPM_P1;HPM_P2
2022/05/30 12:11:52;;;;;;;6.35;2.87;;;;;;;;;;1795885;79;22763;-86
2022/05/30 12:14:56;;;;;;;6.22;2.65;;;;;;;;;;1755127;81;21066;-85
2022/05/30 12:17:28;;;;;;;7.15;2.85;;;;;;;;;;1755236;81;21572;-85
2022/05/30 12:25:45;;;;;;;5.10;2.87;;;;;;;;;;1755886;81;20988;-86
2022/05/30 12:28:34;;;;;;;9.13;3.30;;;;;;;;;;1748122;81;21551;-88
2022/05/30 12:31:05;;;;;;;12.70;3.25;;;;;;;;;;1754130;81;21614;-90
2022/05/30 12:33:36;;;;;;;11.73;2.92;;;;;;;;;;1757494;81;21043;-83
2022/05/30 12:36:17;;;;;;;7.05;3.25;;;;;;;;;;1757081;81;21488;-84
2022/05/30 12:38:52;;;;;;;12.18;3.08;;;;;;;;;;1757500;81;20949;-86
2022/05/30 12:41:21;;;;;;;13.43;3.92;;;;;;;;;;1653349;86;21532;-84
2022/05/30 12:43:49;;;;;;;18.98;3.77;;;;;;;;;;1653401;86;21253;-87
2022/05/30 12:46:24;;;;;;;8.20;3.10;;;;;;;;;;1653093;86;21079;-84
2022/05/30 12:48:55;;;;;;;7.87;2.87;;;;;;;;;;1619378;88;21719;-90
2022/05/30 12:51:40;;;;;;;13.08;3.33;;;;;;;;;;1639578;86;21082;-82
2022/05/30 12:54:09;;;;;;;12.90;3.60;;;;;;;;;;1641967;86;21137;-84
2022/05/30 12:56:43;;;;;;;6.25;2.95;;;;;;;;;;1604113;88;21138;-84
2022/05/30 12:59:13;;;;;;;5.92;3.10;;;;;;;;;;1593591;88;21019;-85
2022/05/30 13:01:48;;;;;;;22.55;3.87;;;;;;;;;;1591025;89;21073;-85
2022/05/30 13:07:01;;;;;;;6.67;3.15;;;;;;;;;;1624569;88;21099;-83
2022/05/30 13:09:34;;;;;;;12.00;2.90;;;;;;;;;;1639590;86;21146;-84
2022/05/30 13:12:15;;;;;;;;;;;;;;;;;;1654371;85;21151;-88
2022/05/30 13:15:02;;;;;;;10.80;3.12;;;;;;;;;;1664368;85;20690;-83
2022/05/30 13:17:49;;;;;;;5.83;2.80;;;;;;;;;;1651443;85;21044;-85
2022/05/30 13:20:17;;;;;;;10.30;3.10;;;;;;;;;;1704284;84;21053;-84
2022/05/30 13:22:51;;;;;;;6.47;2.80;;;;;;;;;;1649174;87;21106;-83
2022/05/30 13:25:35;;;;;;;7.22;3.33;;;;;;;;;;1649157;87;21165;-84
2022/05/30 13:28:07;;;;;;;7.25;2.85;;;;;;;;;;1666090;85;21053;-81
2022/05/30 13:30:34;;;;;;;7.95;3.17;;;;;;;;;;1676907;84;21077;-84
2022/05/30 13:33:04;;;;;;;6.70;3.00;;;;;;;;;;1676956;84;21197;-86
2022/05/30 13:35:31;;;;;;;4.45;2.65;;;;;;;;;;1598795;88;21918;-84
2022/05/30 13:38:02;;;;;;;8.45;2.90;;;;;;;;;;1595840;89;21092;-84
2022/05/30 13:40:30;;;;;;;3.95;2.70;;;;;;;;;;1595288;89;21049;-83
2022/05/30 13:42:59;;;;;;;12.13;3.25;;;;;;;;;;1595789;89;21089;-83
2022/05/30 13:45:30;;;;;;;5.58;2.50;;;;;;;;;;1538523;92;21062;-84
2022/05/30 13:48:01;;;;;;;6.08;2.80;;;;;;;;;;1542950;92;21929;-85
2022/05/30 13:50:45;;;;;;;4.42;2.65;;;;;;;;;;1542947;92;21065;-84
2022/05/30 13:53:13;;;;;;;6.50;3.00;;;;;;;;;;1563937;90;21069;-84
2022/05/30 13:55:42;;;;;;;9.00;3.22;;;;;;;;;;1563584;91;21115;-84
2022/05/30 13:58:08;;;;;;;6.87;2.45;;;;;;;;;;1561289;90;21149;-82
2022/05/30 14:00:35;;;;;;;10.40;2.87;;;;;;;;;;1566670;91;21005;-84
2022/05/30 14:03:02;;;;;;;5.50;2.67;;;;;;;;;;1568312;91;21138;-85
2022/05/30 14:05:33;;;;;;;32.33;4.62;;;;;;;;;;1572651;91;21252;-82
2022/05/30 14:08:02;;;;;;;13.90;2.70;;;;;;;;;;1570540;91;21673;-82
2022/05/30 14:10:29;;;;;;;7.58;3.20;;;;;;;;;;1571453;90;21114;-84
2022/05/30 14:12:55;;;;;;;10.10;3.33;;;;;;;;;;1607495;85;21078;-84
2022/05/30 14:15:26;;;;;;;6.60;2.65;;;;;;;;;;1658017;86;20911;-89
2022/05/30 14:17:54;;;;;;;6.28;2.83;;;;;;;;;;1576247;89;21042;-83
2022/05/30 14:20:32;;;;;;;6.78;2.80;;;;;;;;;;1575537;91;21488;-85
2022/05/30 14:23:02;;;;;;;5.78;2.33;;;;;;;;;;1575600;91;21098;-83
2022/05/30 14:25:34;;;;;;;6.97;3.02;;;;;;;;;;1572801;90;21142;-83
2022/05/30 14:28:02;;;;;;;4.85;2.98;;;;;;;;;;1576064;91;21078;-83
2022/05/30 14:30:33;;;;;;;6.03;2.85;;;;;;;;;;1575779;91;21173;-82
2022/05/30 14:33:14;;;;;;;5.85;2.80;;;;;;;;;;1575830;91;21094;-82
2022/05/30 14:35:40;;;;;;;5.40;3.00;;;;;;;;;;1576252;91;21628;-84
2022/05/30 14:38:11;;;;;;;5.53;2.80;;;;;;;;;;1576359;91;21164;-83
2022/05/30 14:40:43;;;;;;;8.83;3.12;;;;;;;;;;1576031;91;21084;-82
2022/05/30 14:43:30;;;;;;;7.40;2.93;;;;;;;;;;1637735;85;21124;-84
2022/05/30 14:46:15;;;;;;;7.47;2.70;;;;;;;;;;1647319;85;21030;-84
2022/05/30 14:48:47;;;;;;;6.70;2.83;;;;;;;;;;1651148;86;21119;-84
2022/05/30 14:51:32;;;;;;;;;;;;;;;;;;1652104;86;21316;-83
2022/05/30 14:54:10;;;;;;;10.53;3.30;;;;;;;;;;1654509;86;20150;-84
2022/05/30 14:56:39;;;;;;;7.95;3.00;;;;;;;;;;1584266;89;21716;-84
2022/05/30 14:59:05;;;;;;;9.43;3.10;;;;;;;;;;1584720;89;21153;-83
2022/05/30 15:01:34;;;;;;;6.62;2.70;;;;;;;;;;1584632;90;21467;-84
2022/05/30 15:04:10;;;;;;;8.73;2.80;;;;;;;;;;1544811;90;21157;-88
2022/05/30 15:06:45;;;;;;;13.00;2.90;;;;;;;;;;1584405;89;21049;-84
2022/05/30 15:09:18;;;;;;;10.13;2.77;;;;;;;;;;1584531;89;21534;-83
2022/05/30 15:11:46;;;;;;;10.70;2.95;;;;;;;;;;1584366;90;21089;-83
2022/05/30 15:14:18;;;;;;;10.13;2.90;;;;;;;;;;1595989;88;21529;-83
2022/05/30 15:16:44;;;;;;;7.13;3.10;;;;;;;;;;1621227;88;21513;-83
2022/05/30 15:19:11;;;;;;;5.53;2.90;;;;;;;;;;1620756;88;21045;-84
2022/05/30 15:21:46;;;;;;;32.75;3.95;;;;;;;;;;1599508;88;21071;-84
2022/05/30 15:24:18;;;;;;;8.70;3.15;;;;;;;;;;1616903;88;21106;-83
2022/05/30 15:26:44;;;;;;;8.03;2.65;;;;;;;;;;1620757;88;21100;-84
2022/05/30 15:29:11;;;;;;;10.88;3.70;;;;;;;;;;1622199;87;21091;-84
2022/05/30 15:31:36;;;;;;;10.78;3.90;;;;;;;;;;1647460;87;21575;-84
2022/05/30 15:34:02;;;;;;;10.05;3.20;;;;;;;;;;1689153;83;20806;-81
2022/05/30 15:36:28;;;;;;;13.43;3.77;;;;;;;;;;1714101;83;21595;-83
2022/05/30 15:38:54;;;;;;;15.43;3.55;;;;;;;;;;1712113;83;20910;-84
2022/05/30 15:41:20;;;;;;;11.45;3.30;;;;;;;;;;1713848;82;21108;-84
2022/05/30 15:43:46;;;;;;;8.08;3.80;;;;;;;;;;1715503;82;21005;-84
2022/05/30 15:46:16;;;;;;;8.88;3.72;;;;;;;;;;1743696;82;21012;-83
2022/05/30 15:48:42;;;;;;;9.58;4.20;;;;;;;;;;1743498;81;20993;-83
2022/05/30 15:51:08;;;;;;;14.00;4.55;;;;;;;;;;1743718;81;21043;-83
2022/05/30 15:59:07;;;;;;;17.02;4.28;;;;;;;;;;1742147;82;21462;-83
2022/05/30 16:01:33;;;;;;;20.40;4.08;;;;;;;;;;1737686;82;20928;-84
2022/05/30 16:03:58;;;;;;;21.20;4.58;;;;;;;;;;1743797;81;20810;-83
2022/05/30 16:06:27;;;;;;;15.05;3.80;;;;;;;;;;1743701;82;21874;-85
2022/05/30 16:08:55;;;;;;;9.48;4.33;;;;;;;;;;1743365;81;21055;-84
2022/05/30 16:11:21;;;;;;;19.87;4.92;;;;;;;;;;1749544;81;21008;-86
2022/05/30 16:13:46;;;;;;;14.43;5.00;;;;;;;;;;1757136;81;20885;-90
2022/05/30 16:16:13;;;;;;;14.85;5.35;;;;;;;;;;1757218;81;20841;-83
2022/05/30 16:18:39;;;;;;;9.48;4.30;;;;;;;;;;1756835;81;21910;-86
2022/05/30 16:21:07;;;;;;;16.07;4.87;;;;;;;;;;1756863;81;20972;-87
2022/05/30 16:23:34;;;;;;;10.63;4.90;;;;;;;;;;1757058;81;21086;-85
2022/05/30 16:26:03;;;;;;;14.65;5.17;;;;;;;;;;1757045;81;20995;-86
2022/05/30 16:28:29;;;;;;;10.38;4.58;;;;;;;;;;1754692;81;21007;-86
2022/05/30 16:30:55;;;;;;;21.95;5.72;;;;;;;;;;1757112;81;21084;-85
2022/05/30 16:33:23;;;;;;;12.45;5.53;;;;;;;;;;1757008;81;21539;-83
2022/05/30 16:35:50;;;;;;;15.80;6.37;;;;;;;;;;1756619;80;21465;-87
2022/05/30 16:38:17;;;;;;;14.13;5.83;;;;;;;;;;1757005;81;21579;-85
2022/05/30 16:40:43;;;;;;;13.48;5.33;;;;;;;;;;1757026;81;21023;-85
2022/05/30 16:43:08;;;;;;;27.65;6.05;;;;;;;;;;1757229;81;21793;-83
2022/05/30 16:45:34;;;;;;;16.35;4.97;;;;;;;;;;1757150;81;20920;-82
2022/05/30 16:48:00;;;;;;;10.75;5.00;;;;;;;;;;1757237;81;20984;-89
2022/05/30 16:50:26;;;;;;;18.42;5.35;;;;;;;;;;1756881;81;20786;-84
2022/05/30 16:52:52;;;;;;;16.87;5.37;;;;;;;;;;1757112;81;20971;-80
2022/05/30 16:55:18;;;;;;;13.60;5.33;;;;;;;;;;1757083;81;21527;-83
2022/05/30 16:57:44;;;;;;;14.90;5.25;;;;;;;;;;1757425;81;21617;-82
2022/05/30 17:00:12;;;;;;;19.92;5.95;;;;;;;;;;1757117;81;20988;-83
2022/05/30 17:02:38;;;;;;;21.05;6.83;;;;;;;;;;1756860;81;21031;-84
2022/05/30 17:05:05;;;;;;;25.35;6.22;;;;;;;;;;1757127;81;21015;-85
2022/05/30 17:07:30;;;;;;;28.62;6.83;;;;;;;;;;1757197;81;21062;-84
2022/05/30 17:09:58;;;;;;;22.98;6.67;;;;;;;;;;1739966;81;21086;-89
2022/05/30 17:12:25;;;;;;;14.68;6.28;;;;;;;;;;1756997;81;20992;-84
2022/05/30 17:14:51;;;;;;;25.05;6.75;;;;;;;;;;1757191;81;21493;-84
2022/05/30 17:17:16;;;;;;;19.60;6.50;;;;;;;;;;1757294;81;20872;-83
2022/05/30 17:19:44;;;;;;;19.23;6.53;;;;;;;;;;1757044;81;21796;-84
2022/05/30 17:22:10;;;;;;;21.37;7.35;;;;;;;;;;1756987;81;21643;-83
2022/05/30 17:24:36;;;;;;;24.47;6.85;;;;;;;;;;1757209;81;21344;-88
2022/05/30 17:29:47;;;;;;;20.15;7.25;;;;;;;;;;1757018;81;21056;-84
2022/05/30 17:32:16;;;;;;;21.62;8.03;;;;;;;;;;1757359;81;21428;-83
2022/05/30 17:34:42;;;;;;;19.15;6.87;;;;;;;;;;1757047;81;21484;-82
2022/05/30 17:37:08;;;;;;;15.53;6.60;;;;;;;;;;1757477;81;20893;-83
2022/05/30 17:39:34;;;;;;;24.18;7.30;;;;;;;;;;1757164;81;20947;-83
2022/05/30 17:41:59;;;;;;;22.65;6.50;;;;;;;;;;1754601;81;20872;-83
2022/05/30 17:44:25;;;;;;;18.30;6.85;;;;;;;;;;1757201;81;21882;-83
2022/05/30 17:47:04;;;;;;;20.88;6.67;;;;;;;;;;1757112;81;21153;-82
2022/05/30 17:49:58;;;;;;;16.30;6.33;;;;;;;;;;1757621;81;20988;-83
2022/05/30 17:52:42;;;;;;;20.17;6.08;;;;;;;;;;1756911;81;21544;-83
2022/05/30 17:55:10;;;;;;;14.05;6.20;;;;;;;;;;1756773;81;21035;-83
2022/05/30 17:57:36;;;;;;;15.88;6.15;;;;;;;;;;1757095;81;21083;-82
2022/05/30 18:00:08;;;;;;;15.55;6.35;;;;;;;;;;1757187;81;20939;-80
2022/05/30 18:02:35;;;;;;;14.05;6.25;;;;;;;;;;1757036;81;21075;-82
2022/05/30 18:05:02;;;;;;;19.02;6.55;;;;;;;;;;1756825;81;21512;-82
2022/05/30 18:07:49;;;;;;;16.45;6.85;;;;;;;;;;1757086;81;21039;-83
2022/05/30 18:10:21;;;;;;;15.65;5.85;;;;;;;;;;1754624;81;21089;-82
2022/05/30 18:13:03;;;;;;;16.07;5.53;;;;;;;;;;1746447;81;21477;-82
2022/05/30 18:15:49;;;;;;;19.42;7.00;;;;;;;;;;1742633;82;20985;-82
2022/05/30 18:22:00;;;;;;;15.18;6.72;;;;;;;;;;1743510;82;21325;-82
2022/05/30 18:24:50;;;;;;;42.30;7.40;;;;;;;;;;1743903;82;21138;-81
2022/05/30 18:27:17;;;;;;;27.62;7.53;;;;;;;;;;1740022;82;21025;-82
2022/05/30 18:29:43;;;;;;;17.57;5.85;;;;;;;;;;1744033;81;20969;-82
2022/05/30 18:32:31;;;;;;;29.20;7.17;;;;;;;;;;1743856;81;20945;-82
2022/05/30 18:35:12;;;;;;;26.07;7.10;;;;;;;;;;1743560;81;21032;-82
2022/05/30 18:37:44;;;;;;;19.10;7.10;;;;;;;;;;1740250;82;21326;-81
2022/05/30 18:40:16;;;;;;;14.20;6.40;;;;;;;;;;1744094;81;21414;-81
2022/05/30 18:42:46;;;;;;;16.17;7.25;;;;;;;;;;1743878;81;21051;-81
2022/05/30 18:45:15;;;;;;;24.72;7.03;;;;;;;;;;1743621;81;21086;-81
2022/05/30 18:48:00;;;;;;;24.50;8.13;;;;;;;;;;1668558;85;21203;-81
2022/05/30 18:50:26;;;;;;;26.50;8.05;;;;;;;;;;1671042;85;21119;-82
2022/05/30 18:52:52;;;;;;;23.80;8.40;;;;;;;;;;1671762;85;21059;-82
2022/05/30 18:55:20;;;;;;;20.05;8.33;;;;;;;;;;1671712;85;21031;-80
2022/05/30 18:57:49;;;;;;;18.35;7.53;;;;;;;;;;1671661;85;21043;-81
2022/05/30 19:00:21;;;;;;;17.98;6.83;;;;;;;;;;1606175;89;21086;-81
2022/05/30 19:02:50;;;;;;;23.22;8.35;;;;;;;;;;1606090;89;21150;-89
2022/05/30 19:05:18;;;;;;;25.52;8.63;;;;;;;;;;1606188;88;21511;-82
2022/05/30 19:07:45;;;;;;;19.15;8.08;;;;;;;;;;1605841;89;21736;-81
2022/05/30 19:10:13;;;;;;;18.98;7.80;;;;;;;;;;1606140;87;21141;-87
2022/05/30 19:12:42;;;;;;;20.17;8.50;;;;;;;;;;1592899;88;21555;-81
2022/05/30 19:18:05;;;;;;;20.97;8.88;;;;;;;;;;1580421;90;21055;-80
2022/05/30 19:20:31;;;;;;;19.32;8.30;;;;;;;;;;1578163;90;21071;-81
2022/05/30 19:22:57;;;;;;;21.75;8.40;;;;;;;;;;1580658;90;21698;-81
2022/05/30 19:25:26;;;;;;;22.37;8.83;;;;;;;;;;1580757;90;21023;-82
2022/05/30 19:27:56;;;;;;;21.73;9.00;;;;;;;;;;1580503;90;21978;-82
2022/05/30 19:30:25;;;;;;;20.82;7.80;;;;;;;;;;1580485;90;21086;-82
2022/05/30 19:32:55;;;;;;;22.27;8.48;;;;;;;;;;1559917;90;21139;-82
2022/05/30 19:35:25;;;;;;;22.25;9.15;;;;;;;;;;1580567;90;21155;-82
2022/05/30 19:37:50;;;;;;;24.90;9.80;;;;;;;;;;1580415;90;21121;-82
2022/05/30 19:40:15;;;;;;;30.10;9.48;;;;;;;;;;1580610;90;21537;-81
2022/05/30 19:42:41;;;;;;;26.77;8.95;;;;;;;;;;1580460;90;20983;-81
2022/05/30 19:45:08;;;;;;;22.30;8.18;;;;;;;;;;1623072;87;20920;-82
2022/05/30 19:47:35;;;;;;;24.82;8.88;;;;;;;;;;1638185;87;21078;-82
2022/05/30 19:50:01;;;;;;;24.60;9.28;;;;;;;;;;1638086;87;21129;-82
2022/05/30 19:52:27;;;;;;;24.23;8.55;;;;;;;;;;1638810;87;21112;-82
2022/05/30 19:54:54;;;;;;;27.48;9.25;;;;;;;;;;1638334;87;20837;-82
2022/05/30 19:57:21;;;;;;;15.98;8.25;;;;;;;;;;1690900;83;21026;-82
2022/05/30 19:59:47;;;;;;;21.10;9.00;;;;;;;;;;1726924;82;21007;-82
2022/05/30 20:02:12;;;;;;;21.95;9.25;;;;;;;;;;1726817;83;21000;-82
2022/05/30 20:04:38;;;;;;;27.05;9.18;;;;;;;;;;1727022;82;21135;-82
2022/05/30 20:07:04;;;;;;;22.82;9.33;;;;;;;;;;1726780;82;20825;-82
2022/05/30 20:09:29;;;;;;;22.67;9.40;;;;;;;;;;1726794;82;20971;-82
2022/05/30 20:11:55;;;;;;;24.07;8.30;;;;;;;;;;1726667;82;20822;-82
2022/05/30 20:14:21;;;;;;;21.95;8.95;;;;;;;;;;1726985;82;20904;-83
2022/05/30 20:16:47;;;;;;;22.42;9.23;;;;;;;;;;1729931;81;21051;-82
2022/05/30 20:19:15;;;;;;;20.25;8.70;;;;;;;;;;1756996;81;20889;-82
2022/05/30 20:21:44;;;;;;;28.35;9.45;;;;;;;;;;1756806;81;21078;-82
2022/05/30 20:24:09;;;;;;;27.55;9.08;;;;;;;;;;1756581;81;22113;-81
2022/05/30 20:26:36;;;;;;;18.67;8.60;;;;;;;;;;1756943;81;20947;-82
2022/05/30 20:29:03;;;;;;;18.65;8.15;;;;;;;;;;1756939;81;21173;-82
2022/05/30 20:31:29;;;;;;;22.35;8.35;;;;;;;;;;1756783;81;20975;-82
2022/05/30 20:33:55;;;;;;;20.90;8.55;;;;;;;;;;1757115;81;20975;-89
2022/05/30 20:36:24;;;;;;;18.00;7.90;;;;;;;;;;1757056;81;20959;-88
2022/05/30 20:38:50;;;;;;;19.57;8.55;;;;;;;;;;1754955;81;21583;-89
2022/05/30 20:44:00;;;;;;;21.93;9.05;;;;;;;;;;1756810;81;21051;-81
2022/05/30 20:46:26;;;;;;;22.73;8.48;;;;;;;;;;1756799;81;20992;-82
2022/05/30 20:48:52;;;;;;;23.02;8.85;;;;;;;;;;1757095;81;21132;-81
2022/05/30 20:51:18;;;;;;;17.75;8.13;;;;;;;;;;1757283;81;21391;-82
2022/05/30 20:53:44;;;;;;;20.05;8.03;;;;;;;;;;1757015;81;21644;-82
2022/05/30 20:56:09;;;;;;;15.95;7.85;;;;;;;;;;1756946;81;21051;-82
2022/05/30 20:58:35;;;;;;;19.05;7.42;;;;;;;;;;1757119;81;21657;-84
2022/05/30 21:01:01;;;;;;;18.82;7.55;;;;;;;;;;1757073;81;20880;-84
2022/05/30 21:03:27;;;;;;;22.48;8.45;;;;;;;;;;1757183;81;20967;-85
2022/05/30 21:05:55;;;;;;;21.27;8.25;;;;;;;;;;1757360;81;21168;-85
2022/05/30 21:08:21;;;;;;;16.10;6.83;;;;;;;;;;1756791;81;20999;-85
2022/05/30 21:10:47;;;;;;;17.07;7.17;;;;;;;;;;1756861;81;21030;-89
2022/05/30 21:13:13;;;;;;;13.88;6.97;;;;;;;;;;1756853;81;21035;-85
2022/05/30 21:15:40;;;;;;;17.50;7.90;;;;;;;;;;1757073;81;20979;-84
2022/05/30 21:18:13;;;;;;;20.77;8.15;;;;;;;;;;1740122;81;21067;-85
2022/05/30 21:20:43;;;;;;;15.80;7.20;;;;;;;;;;1757052;81;21599;-83
2022/05/30 21:23:09;;;;;;;18.48;7.62;;;;;;;;;;1697314;83;21462;-85
2022/05/30 21:25:37;;;;;;;16.97;7.12;;;;;;;;;;1697156;83;21433;-85
2022/05/30 21:28:04;;;;;;;14.35;7.60;;;;;;;;;;1697451;83;21037;-84
2022/05/30 21:30:31;;;;;;;12.98;6.97;;;;;;;;;;1697406;83;21134;-85
2022/05/30 21:33:02;;;;;;;22.77;8.10;;;;;;;;;;1697125;83;21034;-85
2022/05/30 21:35:29;;;;;;;22.67;7.30;;;;;;;;;;1681607;83;21108;-85
2022/05/30 21:37:55;;;;;;;18.37;7.35;;;;;;;;;;1697189;83;20969;-85
2022/05/30 21:40:24;;;;;;;15.70;7.55;;;;;;;;;;1672995;83;21746;-85
2022/05/30 21:42:49;;;;;;;16.02;8.45;;;;;;;;;;1668974;84;21083;-82
2022/05/30 21:45:18;;;;;;;17.17;8.33;;;;;;;;;;1669086;86;20941;-85
2022/05/30 21:47:43;;;;;;;16.57;7.70;;;;;;;;;;1668717;86;21048;-85
2022/05/30 21:50:12;;;;;;;21.57;8.38;;;;;;;;;;1672168;83;20992;-84
2022/05/30 21:52:38;;;;;;;16.07;7.58;;;;;;;;;;1692343;83;21072;-85
2022/05/30 21:55:05;;;;;;;17.12;7.20;;;;;;;;;;1697196;83;21141;-85
2022/05/30 21:57:49;;;;;;;15.75;7.72;;;;;;;;;;1697212;83;21013;-84
2022/05/30 22:00:31;;;;;;;18.32;8.03;;;;;;;;;;1717991;81;21526;-84
2022/05/30 22:03:01;;;;;;;17.70;7.83;;;;;;;;;;1756751;81;21095;-86
2022/05/30 22:05:26;;;;;;;17.98;7.55;;;;;;;;;;1756659;81;21050;-86
2022/05/30 22:07:52;;;;;;;17.80;8.30;;;;;;;;;;1757054;81;22351;-85
2022/05/30 22:10:20;;;;;;;19.60;8.13;;;;;;;;;;1756978;81;20876;-85
2022/05/30 22:12:46;;;;;;;16.23;7.53;;;;;;;;;;1756921;81;21059;-85
2022/05/30 22:15:13;;;;;;;19.87;8.25;;;;;;;;;;1757071;81;21582;-85
2022/05/30 22:17:39;;;;;;;16.25;7.72;;;;;;;;;;1756988;81;21575;-84
2022/05/30 22:20:12;;;;;;;18.75;7.70;;;;;;;;;;1756947;81;20997;-85
2022/05/30 22:22:38;;;;;;;22.70;8.93;;;;;;;;;;1696922;83;21087;-84
2022/05/30 22:25:07;;;;;;;18.05;8.40;;;;;;;;;;1697259;83;21196;-85
2022/05/30 22:27:33;;;;;;;17.92;8.85;;;;;;;;;;1696865;83;21049;-85
2022/05/30 22:29:59;;;;;;;18.37;7.60;;;;;;;;;;1697145;83;20970;-85
2022/05/30 22:32:25;;;;;;;24.52;8.65;;;;;;;;;;1697410;83;21608;-85
2022/05/30 22:34:51;;;;;;;22.15;8.48;;;;;;;;;;1697190;83;20906;-85
2022/05/30 22:37:16;;;;;;;21.80;8.98;;;;;;;;;;1697217;83;21712;-85
2022/05/30 22:39:42;;;;;;;16.65;7.83;;;;;;;;;;1697206;83;20933;-85
2022/05/30 22:42:08;;;;;;;23.27;9.45;;;;;;;;;;1697276;83;20977;-85
2022/05/30 22:44:34;;;;;;;19.23;8.70;;;;;;;;;;1697308;83;21303;-85
2022/05/30 22:46:59;;;;;;;18.12;8.95;;;;;;;;;;1697230;84;21498;-85
2022/05/30 22:49:25;;;;;;;18.55;9.33;;;;;;;;;;1697105;83;20894;-85
2022/05/30 22:51:51;;;;;;;20.55;9.28;;;;;;;;;;1697244;83;21022;-85
2022/05/30 22:54:17;;;;;;;24.52;9.53;;;;;;;;;;1697344;84;21466;-85
2022/05/30 22:56:44;;;;;;;22.98;9.38;;;;;;;;;;1697556;83;21059;-85
2022/05/30 22:59:10;;;;;;;19.92;9.43;;;;;;;;;;1705602;81;21051;-86
2022/05/30 23:01:36;;;;;;;20.92;9.43;;;;;;;;;;1756969;81;21039;-85
2022/05/30 23:04:01;;;;;;;18.40;9.58;;;;;;;;;;1757106;81;21566;-82
2022/05/30 23:06:28;;;;;;;20.95;9.33;;;;;;;;;;1757056;81;20880;-82
2022/05/30 23:08:54;;;;;;;19.77;9.55;;;;;;;;;;1756731;81;21098;-83
2022/05/30 23:11:25;;;;;;;20.15;8.78;;;;;;;;;;1753634;81;20951;-83
2022/05/30 23:13:57;;;;;;;19.87;9.10;;;;;;;;;;1747583;81;21008;-83
2022/05/30 23:16:26;;;;;;;18.10;9.43;;;;;;;;;;1743611;81;21497;-86
2022/05/30 23:18:52;;;;;;;16.87;8.63;;;;;;;;;;1663555;84;21058;-85
2022/05/30 23:21:20;;;;;;;19.55;9.50;;;;;;;;;;1663512;84;21588;-85
2022/05/30 23:23:46;;;;;;;26.20;9.53;;;;;;;;;;1663503;84;21050;-85
2022/05/30 23:26:14;;;;;;;22.67;9.90;;;;;;;;;;1662996;84;21049;-85
2022/05/30 23:28:40;;;;;;;23.87;10.63;;;;;;;;;;1663537;84;21026;-84
2022/05/30 23:31:06;;;;;;;27.87;11.57;;;;;;;;;;1663566;84;20978;-85
2022/05/30 23:33:32;;;;;;;24.30;10.70;;;;;;;;;;1663528;84;21153;-85
2022/05/30 23:35:57;;;;;;;26.80;11.95;;;;;;;;;;1663465;84;21637;-85
2022/05/30 23:38:23;;;;;;;24.77;11.48;;;;;;;;;;1663530;84;20867;-84
2022/05/30 23:44:34;;;;;;;23.32;10.82;;;;;;;;;;1663399;84;20875;-84
2022/05/30 23:45:45;;;;;;;21.37;11.53;;;;;;;;;;1630070;86;21021;-85
2022/05/30 23:48:12;;;;;;;22.10;11.00;;;;;;;;;;1630446;86;21013;-84
2022/05/30 23:50:39;;;;;;;26.60;11.70;;;;;;;;;;1630219;86;21045;-85
2022/05/30 23:53:07;;;;;;;25.25;10.70;;;;;;;;;;1630447;86;21089;-85
2022/05/30 23:55:36;;;;;;;21.65;10.93;;;;;;;;;;1643155;83;21179;-85
2022/05/30 23:58:02;;;;;;;22.07;10.38;;;;;;;;;;1670606;83;22131;-85
